• Join FlightAware (Why Join?)
  • Login
  • US Flag 
03:51AM EST


 

Airport Tracker/Info


-or-


 

Live Flight TrackerFlight Track Log ✈ N569TA ✈ 25-Apr-2013 ✈ KAPA - KOSH

Flight Track Log - Related Links

Times and Time Zones

All times are in EDT time to prevent confusion due to time zone crossing. See the N569TA flight status page for this flight to view local times or setup timezone preferences in your user account.

Time Position Orientation Groundspeed Altitude Reporting Facility
EDT Latitude Longitude Course Direction KTS MPH feet Rate Location/Type
04:28PM 39.6000 -104.8500 322° Northwest 192 221 7,200  Level Denver TRACON
04:29PM 39.6500 -104.9000 322° Northwest 239 275 9,700 2,520 Climbing Denver TRACON
04:30PM 39.7167 -104.9000 360° North 257 296 12,000 2,520 Climbing Denver TRACON
04:31PM 39.7700 -104.8372 42° Northeast 290 334 14,600 2,220 Climbing Denver Center
04:32PM 39.7925 -104.7172 76° East 324 373 16,600 1,800 Climbing Denver Center
04:33PM 39.8222 -104.5975 72° East 353 406 18,400 1,800 Climbing Denver Center
04:34PM 39.8558 -104.4619 72° East 366 421 20,400 1,860 Climbing Denver Center
04:35PM 39.8861 -104.3308 73° East 380 437 22,300 1,860 Climbing Denver Center
04:36PM 39.9222 -104.1844 72° East 386 444 24,300 1,860 Climbing Denver Center
04:37PM 39.9528 -104.0547 73° East 385 443 26,200 1,860 Climbing Denver Center
04:38PM 39.9881 -103.9139 72° East 383 441 28,200 1,860 Climbing Denver Center
04:39PM 40.0181 -103.7831 73° East 377 434 30,100 1,680 Climbing Denver Center
04:40PM 40.0433 -103.6442 77° East 358 412 31,700 1,440 Climbing Denver Center
04:41PM 40.0631 -103.5150 79° East 379 436 33,100 1,260 Climbing Denver Center
04:42PM 40.0853 -103.3881 77° East 375 432 34,600 1,440 Climbing Denver Center
04:43PM 40.1119 -103.2175 78° East 374 430 36,500 1,440 Climbing Denver Center
04:44PM 40.1353 -103.0731 78° East 367 422 37,700 1,020 Climbing Denver Center
04:45PM 40.1558 -102.9461 78° East 372 428 38,700 960 Climbing Denver Center
04:46PM 40.1778 -102.7983 79° East 371 427 39,900 960 Climbing Denver Center
04:48PM 40.2011 -102.6536 78° East 366 421 40,900 480 Climbing Denver Center
04:49PM 40.2236 -102.5039 79° East 375 432 41,000  Climbing Denver Center
04:51PM 40.2694 -102.2025 79° East 415 478 41,000  Level Denver Center
04:52PM 40.2906 -102.0544 79° East 430 495 41,000  Level Denver Center
04:53PM 40.3178 -101.8769 79° East 445 512 41,000  Level Denver Center
04:54PM 40.3403 -101.7239 79° East 448 516 41,000  Level Denver Center
04:55PM 40.3661 -101.5419 79° East 455 524 41,000  Level Denver Center
04:56PM 40.3953 -101.3878 76° East 457 526 41,000  Level Denver Center
04:57PM 40.4539 -101.2183 66° East 458 527 41,000  Level Denver Center
04:58PM 40.5025 -101.0725 66° East 459 528 41,000  Level Denver Center
04:59PM 40.5589 -100.9000 67° East 462 532 41,000  Level Denver Center
05:01PM 40.6533 -100.6203 66° East 465 535 41,000  Level Minneapolis Center
05:02PM 40.7033 -100.4628 67° East 465 535 41,000  Level Minneapolis Center
05:03PM 40.7544 -100.3072 67° East 465 535 41,000  Level Minneapolis Center
05:04PM 40.8158 -100.1186 67° East 465 535 41,000  Level Minneapolis Center
05:05PM 40.8669 -99.9617 67° East 465 535 41,000  Level Minneapolis Center
05:06PM 40.9169 -99.8036 67° East 466 536 41,000  Level Minneapolis Center
05:06PM 40.9261 -99.7714 69° East 466 536 41,000  Level Denver Center
05:07PM 40.9864 -99.5817 67° East 465 535 41,000  Level Denver Center
05:08PM 41.0364 -99.4233 67° East 466 536 41,000  Level Denver Center
05:09PM 41.0861 -99.2650 67° East 465 535 41,000  Level Denver Center
05:10PM 41.1356 -99.1047 68° East 466 536 41,000  Level Denver Center
05:11PM 41.1903 -98.9275 68° East 465 535 41,000  Level Denver Center
05:12PM 41.2233 -98.8214 67° East 465 535 41,000  Level Minneapolis Center
05:13PM 41.2728 -98.6614 68° East 467 537 41,000  Level Minneapolis Center
05:14PM 41.3206 -98.5011 68° East 467 537 41,000  Level Minneapolis Center
05:15PM 41.3744 -98.3258 68° East 466 536 41,000  Level Minneapolis Center
05:16PM 41.4228 -98.1653 68° East 467 537 41,000  Level Minneapolis Center
05:17PM 41.4750 -97.9894 68° East 463 533 41,000  Level Minneapolis Center
05:18PM 41.5222 -97.8294 68° East 463 533 41,000  Level Minneapolis Center
05:19PM 41.5700 -97.6697 68° East 464 534 41,000  Level Minneapolis Center
05:20PM 41.6164 -97.5103 69° East 462 532 41,000  Level Minneapolis Center
05:21PM 41.6633 -97.3500 69° East 462 532 41,000  Level Minneapolis Center
05:23PM 41.7086 -97.1889 69° East 462 532 41,000  Level Minneapolis Center
05:24PM 41.7656 -96.9956 68° East 463 533 41,000  Level Minneapolis Center
05:25PM 41.8114 -96.8339 69° East 463 533 41,000  Level Minneapolis Center
05:26PM 41.8567 -96.6725 69° East 462 532 41,000  Level Minneapolis Center
05:27PM 41.9028 -96.5103 69° East 462 532 41,000  Level Minneapolis Center
05:28PM 41.9483 -96.3483 69° East 461 531 41,000  Level Minneapolis Center
05:29PM 41.9933 -96.1853 70° East 463 533 41,000  Level Minneapolis Center
05:30PM 42.0386 -96.0242 69° East 460 529 41,000  Level Minneapolis Center
05:31PM 42.0917 -95.8286 70° East 462 532 41,000  Level Minneapolis Center
05:32PM 42.1358 -95.6653 70° East 462 532 41,000  Level Minneapolis Center
05:33PM 42.1808 -95.5031 69° East 462 532 41,000  Level Minneapolis Center
05:34PM 42.2244 -95.3361 71° East 467 537 41,000  Level Minneapolis Center
05:35PM 42.2678 -95.1725 70° East 463 533 41,000  Level Minneapolis Center
05:37PM 42.3547 -94.8453 70° East 461 531 41,000  Level Minneapolis Center
05:38PM 42.4061 -94.6478 71° East 462 532 41,000  Level Minneapolis Center
05:39PM 42.4475 -94.4811 71° East 466 536 41,000  Level Minneapolis Center
05:40PM 42.4925 -94.3061 71° East 466 536 41,000  Level Minneapolis Center
05:41PM 42.5344 -94.1433 71° East 462 532 41,000  Level Minneapolis Center
05:42PM 42.5778 -93.9781 70° East 467 537 41,000  Level Minneapolis Center
05:43PM 42.6189 -93.8133 71° East 465 535 41,000  Level Minneapolis Center
05:44PM 42.6603 -93.6486 71° East 464 534 41,000  Level Minneapolis Center
05:45PM 42.7106 -93.4483 71° East 469 540 41,000  Level Minneapolis Center
05:46PM 42.7517 -93.2828 71° East 468 539 41,000  Level Minneapolis Center
05:47PM 42.7922 -93.1161 72° East 466 536 41,000  Level Minneapolis Center
05:48PM 42.8322 -92.9511 72° East 464 534 41,000  Level Minneapolis Center
05:49PM 42.8714 -92.7858 72° East 461 531 41,000  Level Minneapolis Center
05:50PM 42.9119 -92.6206 71° East 461 531 41,000  Level Minneapolis Center
05:51PM 42.9594 -92.4231 72° East 460 529 41,000  Level Minneapolis Center
05:53PM 42.9978 -92.2581 72° East 457 526 41,000 -240 Level Minneapolis Center
05:54PM 43.0358 -92.0947 72° East 454 522 40,500 -1,020 Descending Minneapolis Center
05:55PM 43.0761 -91.9231 72° East 466 536 38,900 -1,560 Descending Minneapolis Center
05:56PM 43.1147 -91.7517 73° East 472 543 37,300 -1,560 Descending Minneapolis Center
05:57PM 43.1531 -91.5853 72° East 463 533 35,700 -1,740 Descending Minneapolis Center
05:58PM 43.1992 -91.3869 72° East 457 526 33,800 -1,680 Descending Minneapolis Center
05:59PM 43.2436 -91.1853 73° East 460 529 31,900 -1,500 Descending Minneapolis Center
06:00PM 43.2803 -91.0225 73° East 454 522 30,400 -1,680 Descending Minneapolis Center
06:01PM 43.3158 -90.8622 73° East 446 513 28,500 -1,860 Descending Minneapolis Center
06:02PM 43.3514 -90.7039 73° East 440 506 26,600 -1,860 Descending Minneapolis Center
06:03PM 43.3706 -90.6147 73° East 422 486 25,500 -2,280 Descending Chicago Center
06:03PM 43.3908 -90.5247 73° East 417 480 24,300 -2,100 Descending Minneapolis Center
06:04PM 43.4219 -90.3769 74° East 409 471 22,400 -1,980 Descending Minneapolis Center
06:05PM 43.4503 -90.2408 74° East 385 443 20,300 -2,280 Descending Minneapolis Center
06:06PM 43.4667 -90.0822 82° East 369 425 17,700 -2,040 Descending Minneapolis Center
06:07PM 43.5033 -89.9561 68° East 340 391 16,100 -1,500 Descending Minneapolis Center
06:08PM 43.5328 -89.8428 70° East 328 377 14,700 -1,440 Descending Minneapolis Center
06:09PM 43.5481 -89.7789 72° East 325 374 13,800 -1,500 Descending Chicago Center
06:10PM 43.5836 -89.6664 66° East 320 368 12,300 -1,380 Descending Chicago Center
06:11PM 43.6306 -89.5564 59° Northeast 326 375 11,000 -900 Descending Chicago Center
06:11PM 43.6525 -89.4931 64° Northeast 326 375 11,000 60 Level Minneapolis Center
06:12PM 43.6897 -89.3867 64° Northeast 323 372 11,100 -60 Climbing Minneapolis Center
06:13PM 43.7358 -89.2597 63° Northeast 327 376 10,900 -540 Descending Minneapolis Center
06:14PM 43.7642 -89.1378 72° East 318 366 10,000 -900 Descending Minneapolis Center